Time;durP1;ratioP1;P1;durP2;ratioP2;P2;SDS_P1;SDS_P2;PMS_P1;PMS_P2;Temp;Humidity;BMP_temperature;BMP_pressure;BME280_temperature;BME280_humidity;BME280_pressure;Samples;Min_cycle;Max_cycle;Signal;HPM_P1;HPM_P2
2022/12/03 00:00:43;;;;;;;26.98;13.77;;;4.70;99.90;;;;;;6064801;23;95646;-73
2022/12/03 00:03:10;;;;;;;30.20;15.13;;;4.70;99.90;;;;;;6062987;23;96669;-72
2022/12/03 00:05:37;;;;;;;28.20;15.18;;;4.70;99.90;;;;;;6065088;23;92609;-72
2022/12/03 00:08:07;;;;;;;28.33;14.30;;;4.70;99.90;;;;;;6063855;23;95859;-72
2022/12/03 00:10:34;;;;;;;27.33;14.25;;;4.70;99.90;;;;;;6065065;23;92988;-72
2022/12/03 00:13:01;;;;;;;26.88;14.52;;;4.70;99.90;;;;;;6062989;23;92353;-73
2022/12/03 00:15:28;;;;;;;32.25;14.88;;;4.70;99.90;;;;;;6063905;23;91730;-72
2022/12/03 00:17:55;;;;;;;26.13;14.15;;;4.70;99.90;;;;;;6038668;23;95699;-72
2022/12/03 00:20:24;;;;;;;28.00;14.15;;;4.70;99.90;;;;;;6063459;23;95600;-72
2022/12/03 00:22:51;;;;;;;30.85;14.73;;;4.70;99.90;;;;;;6087393;23;94813;-72
2022/12/03 00:25:18;;;;;;;30.45;14.98;;;4.80;99.90;;;;;;6064078;23;104941;-72
2022/12/03 00:27:45;;;;;;;29.73;14.43;;;4.80;99.90;;;;;;6089143;23;95593;-72
2022/12/03 00:30:12;;;;;;;27.42;13.48;;;4.70;99.90;;;;;;6065723;23;93121;-72
2022/12/03 00:32:40;;;;;;;28.95;14.32;;;4.80;99.90;;;;;;6064172;23;92713;-72
2022/12/03 00:35:08;;;;;;;29.13;13.82;;;4.70;99.90;;;;;;6066016;23;92461;-72
2022/12/03 00:37:35;;;;;;;28.70;15.23;;;4.80;99.90;;;;;;6066052;23;92425;-72
2022/12/03 00:40:04;;;;;;;26.02;13.82;;;4.80;99.90;;;;;;6066204;23;92869;-72
2022/12/03 00:42:31;;;;;;;28.83;14.10;;;4.80;99.90;;;;;;6066183;23;92296;-72
2022/12/03 00:44:57;;;;;;;26.83;13.93;;;4.80;99.90;;;;;;6065987;23;92295;-72
2022/12/03 00:47:25;;;;;;;28.02;14.93;;;4.80;99.90;;;;;;6062985;23;95551;-72
2022/12/03 00:49:51;;;;;;;29.40;14.68;;;4.80;99.90;;;;;;6064429;23;95290;-72
2022/12/03 00:52:19;;;;;;;28.75;14.60;;;4.80;99.90;;;;;;6066132;23;92450;-72
2022/12/03 00:54:47;;;;;;;30.67;15.88;;;4.80;99.90;;;;;;6064617;23;92849;-72
2022/12/03 00:57:15;;;;;;;24.83;13.93;;;4.80;99.90;;;;;;6065658;23;93129;-73
2022/12/03 00:59:42;;;;;;;26.25;15.10;;;4.70;99.90;;;;;;6064196;23;95798;-73
2022/12/03 01:02:09;;;;;;;29.95;15.02;;;4.70;99.90;;;;;;6065874;23;92450;-72
2022/12/03 01:04:36;;;;;;;24.08;13.95;;;4.80;99.90;;;;;;6065158;23;92262;-72
2022/12/03 01:07:03;;;;;;;24.98;14.45;;;4.80;99.90;;;;;;6064174;23;93162;-72
2022/12/03 01:09:30;;;;;;;25.02;13.27;;;4.80;99.90;;;;;;6065879;23;93487;-72
2022/12/03 01:11:57;;;;;;;26.60;15.15;;;4.80;99.90;;;;;;6064583;23;94763;-72
2022/12/03 01:14:24;;;;;;;23.60;14.30;;;4.80;99.90;;;;;;6088383;23;103149;-72
2022/12/03 01:16:51;;;;;;;27.27;14.40;;;4.80;99.90;;;;;;6064335;23;93232;-72
2022/12/03 01:19:18;;;;;;;23.42;13.70;;;4.90;99.90;;;;;;6065598;23;92893;-74
2022/12/03 01:21:48;;;;;;;24.88;13.00;;;4.80;99.90;;;;;;6066004;23;92406;-74
2022/12/03 01:24:16;;;;;;;24.80;15.15;;;4.80;99.90;;;;;;6065809;23;92364;-74
2022/12/03 01:26:43;;;;;;;21.23;13.20;;;4.80;99.90;;;;;;6065935;23;93014;-74
2022/12/03 01:29:10;;;;;;;24.13;13.45;;;4.80;99.90;;;;;;6066204;23;92826;-74
2022/12/03 01:34:22;;;;;;;20.63;12.02;;;4.80;99.90;;;;;;6068054;23;92495;-74
2022/12/03 01:36:51;;;;;;;25.70;14.07;;;4.80;99.90;;;;;;6087109;23;98327;-74
2022/12/03 01:39:18;;;;;;;21.90;13.90;;;4.90;99.90;;;;;;6065450;23;95270;-74
2022/12/03 01:41:47;;;;;;;23.67;13.88;;;4.90;99.90;;;;;;6065599;23;96936;-74
2022/12/03 01:44:23;;;;;;;22.25;13.50;;;4.90;99.90;;;;;;6088315;23;92477;-74
2022/12/03 01:46:53;;;;;;;21.45;13.55;;;5.00;99.90;;;;;;6065769;23;93250;-74
2022/12/03 01:49:24;;;;;;;24.10;13.88;;;4.90;99.90;;;;;;6065530;23;92932;-74
2022/12/03 01:51:53;;;;;;;23.75;14.63;;;5.00;99.90;;;;;;6064471;23;92392;-75
2022/12/03 01:54:43;;;;;;;23.48;13.60;;;5.00;99.90;;;;;;6040584;23;91970;-74
2022/12/03 01:57:47;;;;;;;22.73;14.52;;;5.00;99.90;;;;;;6065527;23;92995;-74
2022/12/03 02:00:17;;;;;;;25.10;13.50;;;5.00;99.90;;;;;;6052623;23;93021;-74
2022/12/03 02:02:45;;;;;;;23.77;13.40;;;5.00;99.90;;;;;;6064518;23;95322;-74
2022/12/03 02:05:21;;;;;;;24.80;14.82;;;5.00;99.90;;;;;;6065529;23;92390;-74
2022/12/03 02:07:49;;;;;;;23.63;13.60;;;5.00;99.90;;;;;;6064106;23;95631;-74
2022/12/03 02:10:19;;;;;;;21.13;13.15;;;5.00;99.90;;;;;;6065650;23;93059;-74
2022/12/03 02:12:53;;;;;;;25.23;16.30;;;5.00;99.90;;;;;;6065889;23;92446;-74
2022/12/03 02:15:20;;;;;;;;;;;5.10;99.90;;;;;;6066046;23;92438;-74
2022/12/03 02:17:47;;;;;;;23.10;13.93;;;5.00;99.90;;;;;;6065954;23;98570;-74
2022/12/03 02:20:17;;;;;;;22.88;13.50;;;5.00;99.90;;;;;;6065973;23;93238;-74
2022/12/03 02:23:12;;;;;;;23.92;13.48;;;5.00;99.90;;;;;;6065868;23;92310;-72
2022/12/03 02:25:39;;;;;;;22.48;12.77;;;5.10;99.90;;;;;;6088763;23;92364;-73
2022/12/03 02:28:08;;;;;;;25.52;15.18;;;5.10;99.90;;;;;;6086767;23;98768;-72
2022/12/03 02:30:35;;;;;;;23.20;13.77;;;5.10;99.90;;;;;;6087817;23;97857;-72
2022/12/03 02:33:03;;;;;;;28.00;14.95;;;5.10;99.90;;;;;;6065610;23;92336;-72
2022/12/03 02:35:33;;;;;;;23.63;13.82;;;5.10;99.90;;;;;;6088376;23;93222;-72
2022/12/03 02:38:22;;;;;;;24.92;14.38;;;5.10;99.90;;;;;;6065502;23;97919;-72
2022/12/03 02:40:55;;;;;;;22.00;13.73;;;5.10;99.90;;;;;;6088562;23;95695;-72
2022/12/03 02:43:24;;;;;;;25.37;14.17;;;5.00;99.90;;;;;;6088004;23;92375;-72
2022/12/03 02:45:54;;;;;;;23.17;13.88;;;4.90;99.90;;;;;;6064683;23;91753;-72
2022/12/03 02:48:39;;;;;;;23.20;14.18;;;4.90;99.90;;;;;;6063745;23;94059;-72
2022/12/03 02:51:09;;;;;;;24.50;14.88;;;4.90;99.90;;;;;;6065531;23;93069;-72
2022/12/03 02:53:46;;;;;;;22.77;14.07;;;4.90;99.90;;;;;;6062401;23;94932;-72
2022/12/03 02:56:17;;;;;;;22.52;14.75;;;4.80;99.90;;;;;;6088764;23;93112;-72
2022/12/03 02:58:45;;;;;;;25.63;14.48;;;4.80;99.90;;;;;;6088362;23;96068;-72
2022/12/03 03:01:14;;;;;;;22.60;13.48;;;4.80;99.90;;;;;;6065305;23;93211;-72
2022/12/03 03:03:42;;;;;;;20.83;13.07;;;4.70;99.90;;;;;;6065528;23;92355;-72
2022/12/03 03:06:09;;;;;;;21.05;12.32;;;4.70;99.90;;;;;;6065768;23;92949;-72
2022/12/03 03:08:38;;;;;;;24.08;13.93;;;4.70;99.90;;;;;;6087854;23;96057;-72
2022/12/03 03:11:05;;;;;;;22.23;14.15;;;4.60;99.90;;;;;;6064519;23;92985;-72
2022/12/03 03:13:34;;;;;;;23.75;13.77;;;4.70;99.90;;;;;;6065457;23;92406;-72
2022/12/03 03:16:04;;;;;;;24.40;13.63;;;4.70;99.90;;;;;;6088145;23;92410;-72
2022/12/03 03:18:33;;;;;;;21.63;12.68;;;4.60;99.90;;;;;;6061624;23;98324;-72
2022/12/03 03:21:01;;;;;;;23.17;13.55;;;4.60;99.90;;;;;;6065374;23;95313;-72
2022/12/03 03:23:28;;;;;;;22.15;13.52;;;4.60;99.90;;;;;;6087853;23;92413;-72
2022/12/03 03:26:05;;;;;;;23.67;13.95;;;4.50;99.90;;;;;;6065720;23;92404;-72
2022/12/03 03:28:35;;;;;;;24.42;13.95;;;4.60;99.90;;;;;;6088115;23;94302;-72
2022/12/03 03:31:05;;;;;;;24.52;13.63;;;4.50;99.90;;;;;;6087363;23;92808;-72
2022/12/03 03:33:33;;;;;;;24.10;13.90;;;4.60;99.90;;;;;;6063742;23;92874;-72
2022/12/03 03:36:00;;;;;;;23.95;14.43;;;4.60;99.90;;;;;;6065861;23;91633;-72
2022/12/03 03:38:29;;;;;;;22.30;13.70;;;4.60;99.90;;;;;;6063394;23;92413;-72
2022/12/03 03:40:58;;;;;;;24.58;14.05;;;4.60;99.90;;;;;;6065068;23;93088;-72
2022/12/03 03:43:25;;;;;;;22.95;13.60;;;4.60;99.90;;;;;;6061248;23;107552;-72
2022/12/03 03:45:52;;;;;;;20.90;13.00;;;4.60;99.90;;;;;;6065248;23;92408;-73
2022/12/03 03:48:21;;;;;;;24.15;15.40;;;4.50;99.90;;;;;;6065056;23;93111;-72
2022/12/03 03:50:49;;;;;;;21.77;13.05;;;4.60;99.90;;;;;;6065076;23;92953;-72
2022/12/03 03:53:18;;;;;;;26.40;14.48;;;4.50;99.90;;;;;;6064076;23;92441;-72
2022/12/03 03:55:45;;;;;;;23.45;13.65;;;4.50;99.90;;;;;;6065770;23;92420;-72
2022/12/03 03:58:13;;;;;;;22.27;12.48;;;4.50;99.90;;;;;;6066182;23;94380;-72
2022/12/03 04:00:45;;;;;;;22.92;14.07;;;4.50;99.90;;;;;;6066439;23;93048;-72
2022/12/03 04:03:12;;;;;;;23.67;14.43;;;4.50;99.90;;;;;;6089351;23;92374;-72
2022/12/03 04:05:40;;;;;;;24.40;13.32;;;4.50;99.90;;;;;;6066190;23;92291;-72
2022/12/03 04:08:07;;;;;;;24.92;13.98;;;4.50;99.90;;;;;;6064664;23;95639;-72
2022/12/03 04:13:19;;;;;;;22.80;12.50;;;4.50;99.90;;;;;;6068996;23;93298;-72
2022/12/03 04:15:46;;;;;;;23.20;12.77;;;4.50;99.90;;;;;;6088856;23;92551;-72
2022/12/03 04:24:06;;;;;;;22.52;12.95;;;4.50;99.90;;;;;;6005599;23;92575;-72
2022/12/03 04:29:20;;;;;;;22.13;13.63;;;4.40;99.90;;;;;;6042785;23;93429;-72
2022/12/03 04:37:19;;;;;;;20.45;13.30;;;4.40;99.90;;;;;;6066336;23;92306;-72
2022/12/03 04:39:45;;;;;;;20.27;12.75;;;4.40;99.90;;;;;;6088858;23;96653;-72
2022/12/03 04:42:12;;;;;;;25.70;16.25;;;4.40;99.90;;;;;;6065663;23;103561;-72
2022/12/03 04:44:39;;;;;;;22.38;13.15;;;4.40;99.90;;;;;;6066073;23;92373;-72
2022/12/03 04:47:13;;;;;;;22.60;13.65;;;4.40;99.90;;;;;;6064803;23;92376;-72
2022/12/03 04:49:49;;;;;;;22.10;12.27;;;4.40;99.90;;;;;;6065936;23;93098;-72
2022/12/03 04:52:18;;;;;;;21.95;12.68;;;4.40;99.90;;;;;;6089776;23;93898;-72
2022/12/03 04:54:45;;;;;;;21.88;13.88;;;4.40;99.90;;;;;;6065976;23;93334;-72
2022/12/03 04:57:12;;;;;;;25.30;14.55;;;4.40;99.90;;;;;;6064617;23;93132;-72
2022/12/03 04:59:39;;;;;;;22.50;13.55;;;4.40;99.90;;;;;;6087299;23;95661;-72
2022/12/03 05:02:07;;;;;;;24.70;13.77;;;4.50;99.90;;;;;;6064493;23;95480;-72
2022/12/03 05:04:35;;;;;;;25.67;13.93;;;4.50;99.90;;;;;;6065900;23;92396;-72
2022/12/03 05:07:02;;;;;;;24.60;13.13;;;4.50;99.90;;;;;;6065637;23;93870;-72
2022/12/03 05:09:28;;;;;;;20.63;11.55;;;4.50;99.90;;;;;;6064425;23;95729;-72
2022/12/03 05:11:55;;;;;;;21.60;13.20;;;4.50;99.90;;;;;;6088547;23;94682;-72
2022/12/03 05:14:22;;;;;;;21.70;12.05;;;4.50;99.90;;;;;;6064556;23;93019;-72
2022/12/03 05:16:49;;;;;;;22.95;13.75;;;4.50;99.90;;;;;;6066302;23;91679;-72
2022/12/03 05:19:16;;;;;;;23.35;12.93;;;4.50;99.90;;;;;;6064755;23;93030;-72
2022/12/03 05:21:43;;;;;;;25.33;13.95;;;4.50;99.90;;;;;;6064226;23;93047;-72
2022/12/03 05:24:10;;;;;;;19.85;11.98;;;4.50;99.90;;;;;;6064646;23;94775;-72
2022/12/03 05:26:37;;;;;;;21.67;13.55;;;4.50;99.90;;;;;;6040047;23;92428;-72
2022/12/03 05:29:04;;;;;;;20.92;12.73;;;4.40;99.90;;;;;;6065858;23;93062;-72
2022/12/03 05:31:30;;;;;;;23.15;13.07;;;4.50;99.90;;;;;;6065488;23;92905;-72
2022/12/03 05:33:57;;;;;;;23.45;13.68;;;4.40;99.90;;;;;;6064315;23;92443;-72
2022/12/03 05:36:24;;;;;;;23.17;13.73;;;4.50;99.90;;;;;;6066257;23;92962;-72
2022/12/03 05:38:51;;;;;;;21.67;13.02;;;4.50;99.90;;;;;;6088456;23;95796;-72
2022/12/03 05:44:04;;;;;;;15.77;9.80;;;4.40;99.90;;;;;;6064731;23;92389;-72
2022/12/03 05:46:31;;;;;;;23.70;12.75;;;4.30;99.90;;;;;;6064986;23;92559;-72
2022/12/03 05:48:58;;;;;;;23.15;13.23;;;4.40;99.90;;;;;;6064226;23;95334;-72
2022/12/03 05:51:25;;;;;;;22.13;13.70;;;4.40;99.90;;;;;;6064235;23;95295;-72
2022/12/03 05:53:52;;;;;;;22.23;14.13;;;4.40;99.90;;;;;;6088606;23;92352;-72
2022/12/03 05:56:19;;;;;;;19.83;13.00;;;4.40;99.90;;;;;;6064448;23;92574;-72
2022/12/03 05:58:46;;;;;;;23.65;13.63;;;4.40;99.90;;;;;;6064292;23;93255;-72
2022/12/03 06:01:13;;;;;;;21.88;12.43;;;4.40;99.90;;;;;;6065124;23;106559;-72
2022/12/03 06:03:40;;;;;;;23.05;12.70;;;4.40;99.90;;;;;;6066099;23;92364;-72
2022/12/03 06:06:07;;;;;;;23.73;14.20;;;4.30;99.90;;;;;;6066466;23;91644;-72
2022/12/03 06:08:34;;;;;;;22.70;13.73;;;4.30;99.90;;;;;;6064339;23;93094;-72
2022/12/03 06:11:01;;;;;;;23.05;13.90;;;4.30;99.90;;;;;;6039744;23;95592;-72
2022/12/03 06:13:27;;;;;;;23.33;14.07;;;4.30;99.90;;;;;;6063014;23;94867;-72
2022/12/03 06:15:54;;;;;;;21.60;13.10;;;4.30;99.90;;;;;;6063869;23;92422;-72
2022/12/03 06:18:21;;;;;;;20.77;11.63;;;4.30;99.90;;;;;;6087808;23;95653;-72
2022/12/03 06:20:48;;;;;;;25.98;13.02;;;4.20;99.90;;;;;;6065181;23;103484;-72
2022/12/03 06:23:15;;;;;;;22.73;13.60;;;4.20;99.90;;;;;;6064151;23;92474;-72
2022/12/03 06:25:42;;;;;;;20.40;12.88;;;4.20;99.90;;;;;;6040072;23;92525;-72
2022/12/03 06:28:09;;;;;;;24.88;15.00;;;4.20;99.90;;;;;;6039745;23;95658;-72
2022/12/03 06:30:36;;;;;;;22.50;13.38;;;4.10;99.90;;;;;;6063931;23;92883;-72
2022/12/03 06:33:03;;;;;;;21.70;12.70;;;4.10;99.90;;;;;;6085879;23;92345;-72
2022/12/03 06:35:30;;;;;;;25.45;14.15;;;4.00;99.90;;;;;;6088657;23;92563;-72
2022/12/03 06:37:57;;;;;;;23.75;13.02;;;4.00;99.90;;;;;;6063824;23;95556;-72
2022/12/03 06:40:24;;;;;;;24.98;13.63;;;4.10;99.90;;;;;;6088288;23;96121;-72
2022/12/03 06:42:51;;;;;;;24.23;13.98;;;4.00;99.90;;;;;;6088466;23;92443;-72
2022/12/03 06:45:18;;;;;;;22.25;12.52;;;4.00;99.90;;;;;;6065739;23;92388;-72
2022/12/03 06:47:45;;;;;;;24.42;15.38;;;3.90;99.90;;;;;;6063571;23;102597;-72
2022/12/03 06:50:13;;;;;;;24.48;13.70;;;4.00;99.90;;;;;;6065810;23;93079;-72
2022/12/03 06:52:40;;;;;;;27.77;14.27;;;4.00;99.90;;;;;;6088501;23;92410;-72
2022/12/03 06:55:07;;;;;;;23.23;11.55;;;4.00;99.90;;;;;;6088594;23;91782;-72
2022/12/03 06:57:34;;;;;;;26.83;15.00;;;4.00;99.90;;;;;;6088310;23;96007;-72
2022/12/03 07:00:02;;;;;;;20.70;12.80;;;3.90;99.90;;;;;;6088050;23;95600;-72
2022/12/03 07:02:29;;;;;;;25.27;14.27;;;3.90;99.90;;;;;;6062610;23;94896;-72
2022/12/03 07:04:56;;;;;;;25.40;14.00;;;3.90;99.90;;;;;;6088079;23;92431;-72
2022/12/03 07:07:23;;;;;;;23.50;13.65;;;3.90;99.90;;;;;;6065410;23;93376;-72
2022/12/03 07:09:50;;;;;;;22.42;13.05;;;3.90;99.90;;;;;;6039578;23;95512;-72
2022/12/03 07:12:17;;;;;;;23.90;13.02;;;3.80;99.90;;;;;;6064122;23;92409;-72
2022/12/03 07:14:44;;;;;;;23.60;13.30;;;3.80;99.90;;;;;;6088441;23;92962;-72
2022/12/03 07:17:11;;;;;;;25.38;14.30;;;3.80;99.90;;;;;;6065300;23;93121;-72
2022/12/03 07:19:38;;;;;;;25.02;13.20;;;3.80;99.90;;;;;;6064351;23;95544;-72
2022/12/03 07:22:05;;;;;;;25.05;14.10;;;3.80;99.90;;;;;;6063843;23;92398;-72
2022/12/03 07:24:32;;;;;;;26.85;12.90;;;3.80;99.90;;;;;;6065602;23;92973;-72
2022/12/03 07:26:59;;;;;;;32.22;16.30;;;3.80;99.90;;;;;;6061986;23;94873;-72
2022/12/03 07:29:26;;;;;;;25.30;13.40;;;3.80;99.90;;;;;;6063478;23;95411;-72
2022/12/03 07:31:53;;;;;;;26.70;15.55;;;3.70;99.90;;;;;;6065185;23;92450;-72
2022/12/03 07:34:20;;;;;;;28.85;14.70;;;3.70;99.90;;;;;;6088258;23;92414;-72
2022/12/03 07:36:47;;;;;;;27.98;14.05;;;3.70;99.90;;;;;;6064718;23;101852;-72
2022/12/03 07:39:14;;;;;;;28.40;15.43;;;3.70;99.90;;;;;;6087731;23;95577;-72
2022/12/03 07:41:41;;;;;;;27.60;14.73;;;3.70;99.90;;;;;;6065394;23;92470;-72
2022/12/03 07:44:08;;;;;;;32.30;14.70;;;3.70;99.90;;;;;;6064002;23;91652;-72
2022/12/03 07:46:41;;;;;;;31.30;16.25;;;3.70;99.90;;;;;;6065191;23;93229;-72
2022/12/03 07:49:08;;;;;;;31.80;16.13;;;3.70;99.90;;;;;;6087570;23;94274;-72
2022/12/03 07:51:35;;;;;;;32.72;16.48;;;3.60;99.90;;;;;;6063771;23;94703;-72
2022/12/03 07:54:02;;;;;;;32.63;16.60;;;3.60;99.90;;;;;;6065237;23;92522;-72
2022/12/03 07:56:29;;;;;;;26.60;13.95;;;3.60;99.90;;;;;;6064932;23;93059;-72
2022/12/03 07:58:56;;;;;;;35.20;17.40;;;3.70;99.90;;;;;;6063432;23;95907;-72
2022/12/03 08:01:22;;;;;;;24.02;11.82;;;3.60;99.90;;;;;;6064997;23;92274;-72
2022/12/03 08:03:50;;;;;;;31.60;16.95;;;3.70;99.90;;;;;;6065007;23;97013;-72
2022/12/03 08:06:17;;;;;;;33.63;17.60;;;3.60;99.90;;;;;;6064710;23;93112;-72
2022/12/03 08:08:43;;;;;;;31.45;16.77;;;3.60;99.90;;;;;;6065536;23;92754;-72
2022/12/03 08:11:15;;;;;;;30.42;15.73;;;3.60;99.90;;;;;;6063224;23;92438;-72
2022/12/03 08:13:42;;;;;;;28.05;15.45;;;3.70;99.90;;;;;;6065282;23;92299;-72
2022/12/03 08:16:21;;;;;;;27.63;13.93;;;3.70;99.90;;;;;;6061596;23;94897;-72
2022/12/03 08:18:49;;;;;;;34.13;17.20;;;3.70;99.90;;;;;;6064828;23;95253;-72
2022/12/03 08:21:19;;;;;;;30.95;16.02;;;3.60;99.90;;;;;;6087667;23;92519;-72
2022/12/03 08:23:46;;;;;;;32.92;16.92;;;3.60;99.90;;;;;;6063665;23;92419;-72
2022/12/03 08:26:19;;;;;;;33.08;17.98;;;3.70;99.90;;;;;;6062932;23;93195;-72
2022/12/03 08:28:46;;;;;;;31.00;16.40;;;3.70;99.90;;;;;;6064913;23;93040;-72
2022/12/03 08:31:24;;;;;;;28.40;14.15;;;3.70;99.90;;;;;;6086929;23;92622;-72
2022/12/03 08:34:26;;;;;;;35.42;20.17;;;3.70;99.90;;;;;;6087064;23;92324;-72
2022/12/03 08:37:04;;;;;;;30.75;16.90;;;3.70;99.90;;;;;;6038126;23;95767;-72
2022/12/03 08:39:36;;;;;;;30.60;15.85;;;3.70;99.90;;;;;;6064695;23;93825;-72
2022/12/03 08:44:53;;;;;;;28.23;16.00;;;3.80;99.90;;;;;;6064739;23;92392;-72
2022/12/03 08:47:23;;;;;;;30.00;15.52;;;3.70;99.90;;;;;;6065741;23;93356;-72
2022/12/03 08:49:56;;;;;;;32.05;17.08;;;3.80;99.90;;;;;;6064580;23;93923;-72
2022/12/03 08:52:30;;;;;;;29.83;15.47;;;3.70;99.90;;;;;;6066065;23;92307;-72
2022/12/03 08:54:58;;;;;;;34.38;17.25;;;3.70;99.90;;;;;;6066235;23;92415;-72
2022/12/03 08:57:28;;;;;;;31.15;15.50;;;3.70;99.90;;;;;;6064375;23;94158;-72
2022/12/03 09:00:06;;;;;;;32.15;18.52;;;3.80;99.90;;;;;;6066234;23;101509;-72
2022/12/03 09:02:33;;;;;;;34.38;17.85;;;3.80;99.90;;;;;;6066400;23;92983;-72
2022/12/03 09:05:17;;;;;;;34.90;18.00;;;3.80;99.90;;;;;;6066109;23;92444;-72
2022/12/03 09:07:44;;;;;;;32.22;16.80;;;3.90;99.90;;;;;;6064728;23;95810;-72
2022/12/03 09:10:11;;;;;;;34.38;16.50;;;3.90;99.90;;;;;;6065528;23;95603;-73
2022/12/03 09:12:38;;;;;;;29.70;15.82;;;3.80;99.90;;;;;;6064737;23;92470;-72
2022/12/03 09:15:06;;;;;;;33.90;18.38;;;3.80;99.90;;;;;;6066068;23;92417;-72
2022/12/03 09:17:33;;;;;;;33.30;17.60;;;3.90;99.90;;;;;;6065757;23;93244;-72
2022/12/03 09:20:00;;;;;;;34.58;17.55;;;3.90;99.90;;;;;;6088569;23;101404;-72
2022/12/03 09:22:27;;;;;;;34.95;16.95;;;3.90;99.90;;;;;;6088695;23;92400;-72
2022/12/03 09:24:53;;;;;;;35.35;19.95;;;3.90;99.90;;;;;;6066512;23;91711;-72
2022/12/03 09:27:21;;;;;;;34.60;18.50;;;4.00;99.90;;;;;;6088319;23;95688;-72
2022/12/03 09:29:49;;;;;;;37.42;20.65;;;4.00;99.90;;;;;;6088647;23;94158;-72
2022/12/03 09:32:16;;;;;;;36.88;20.70;;;4.00;99.90;;;;;;6062499;23;94790;-72
2022/12/03 09:34:45;;;;;;;36.53;18.38;;;4.10;99.90;;;;;;6040206;23;92482;-72
2022/12/03 09:37:12;;;;;;;36.95;18.23;;;4.10;99.90;;;;;;6065252;23;105685;-72
2022/12/03 09:39:39;;;;;;;42.00;21.55;;;4.00;99.90;;;;;;6088633;23;95649;-72
2022/12/03 09:42:06;;;;;;;34.42;18.48;;;4.10;99.90;;;;;;6065984;23;92358;-72
2022/12/03 09:44:34;;;;;;;35.35;19.67;;;4.10;99.90;;;;;;6064106;23;92929;-72
2022/12/03 09:47:03;;;;;;;39.03;20.92;;;4.20;99.90;;;;;;6065785;23;93113;-72
2022/12/03 09:49:32;;;;;;;37.72;20.13;;;4.20;99.90;;;;;;6065944;23;93079;-72
2022/12/03 09:52:01;;;;;;;38.53;20.65;;;4.20;99.90;;;;;;6065910;23;92464;-72
2022/12/03 09:54:30;;;;;;;37.92;21.02;;;4.30;99.90;;;;;;6065678;23;92793;-72
2022/12/03 09:57:00;;;;;;;38.92;19.40;;;4.30;99.90;;;;;;6062301;23;98099;-72
2022/12/03 09:59:31;;;;;;;36.97;19.58;;;4.30;99.90;;;;;;6065396;23;96495;-72
2022/12/03 10:01:59;;;;;;;39.67;21.50;;;4.30;99.90;;;;;;6066007;23;92535;-72
2022/12/03 10:04:29;;;;;;;38.72;21.88;;;4.30;99.90;;;;;;6065660;23;92413;-72
2022/12/03 10:06:57;;;;;;;42.97;22.23;;;4.30;99.90;;;;;;6064213;23;93349;-72
2022/12/03 10:09:27;;;;;;;39.83;21.02;;;4.30;99.90;;;;;;6065445;23;92708;-72
2022/12/03 10:11:58;;;;;;;38.00;20.00;;;4.40;99.90;;;;;;6066013;23;92806;-72
2022/12/03 10:14:26;;;;;;;37.40;19.90;;;4.40;99.90;;;;;;6064629;23;92243;-72
2022/12/03 10:16:53;;;;;;;36.17;19.50;;;4.30;99.90;;;;;;6065440;23;98427;-72
2022/12/03 10:19:30;;;;;;;42.25;21.08;;;4.30;99.90;;;;;;6065329;23;93150;-72
2022/12/03 10:21:57;;;;;;;37.92;19.67;;;4.30;99.90;;;;;;6064634;23;95275;-72
2022/12/03 10:24:29;;;;;;;38.65;20.67;;;4.30;99.90;;;;;;6064126;23;92461;-72
2022/12/03 10:27:01;;;;;;;45.05;22.85;;;4.20;99.90;;;;;;6065670;23;93308;-72
2022/12/03 10:29:34;;;;;;;35.92;18.42;;;4.30;99.90;;;;;;6063765;23;95401;-72
2022/12/03 10:32:06;;;;;;;39.70;21.00;;;4.30;99.90;;;;;;6064222;23;92678;-72
2022/12/03 10:34:36;;;;;;;37.08;20.98;;;4.30;99.90;;;;;;6065572;23;92472;-72
2022/12/03 10:37:12;;;;;;;37.80;18.63;;;4.30;99.90;;;;;;6088373;23;92423;-72
2022/12/03 10:39:54;;;;;;;38.50;20.45;;;4.30;99.90;;;;;;6064349;23;91791;-72
2022/12/03 10:42:24;;;;;;;37.60;18.60;;;4.40;99.90;;;;;;6088800;23;92471;-73
2022/12/03 10:45:14;;;;;;;37.65;21.60;;;4.40;99.90;;;;;;6065665;23;92386;-74
2022/12/03 10:48:03;;;;;;;39.63;21.70;;;4.30;99.90;;;;;;6062179;23;98056;-74
2022/12/03 10:50:31;;;;;;;39.03;20.63;;;4.30;99.90;;;;;;6064259;23;95173;-72
2022/12/03 10:52:58;;;;;;;39.13;21.00;;;4.30;99.90;;;;;;6088232;23;92340;-72
2022/12/03 10:55:27;;;;;;;34.83;19.42;;;4.30;99.90;;;;;;6065168;23;92480;-73
2022/12/03 10:57:54;;;;;;;42.15;22.02;;;4.20;99.90;;;;;;6063477;23;95718;-72
2022/12/03 11:00:22;;;;;;;42.05;21.90;;;4.20;99.90;;;;;;6065430;23;93090;-72
2022/12/03 11:02:49;;;;;;;36.80;19.80;;;4.30;99.90;;;;;;6064821;23;99534;-72
2022/12/03 11:05:28;;;;;;;35.57;19.50;;;4.30;99.90;;;;;;6065361;23;91663;-72
2022/12/03 11:07:55;;;;;;;40.87;22.60;;;4.30;99.90;;;;;;6064566;23;93116;-72
2022/12/03 11:10:23;;;;;;;36.42;21.45;;;4.20;99.90;;;;;;6065551;23;93112;-72
2022/12/03 11:13:27;;;;;;;36.47;19.70;;;4.30;99.90;;;;;;6062386;23;94834;-73
2022/12/03 11:15:54;;;;;;;37.55;19.13;;;4.30;99.90;;;;;;6039655;23;92956;-73
2022/12/03 11:18:35;;;;;;;38.78;20.20;;;4.20;99.90;;;;;;6063815;23;92913;-77
2022/12/03 11:21:07;;;;;;;37.47;20.67;;;4.20;99.90;;;;;;6088594;23;94089;-76
2022/12/03 11:23:43;;;;;;;37.38;19.95;;;4.20;99.90;;;;;;6064366;23;92398;-72
2022/12/03 11:26:14;;;;;;;39.30;21.30;;;4.30;99.90;;;;;;6061627;23;92800;-72
2022/12/03 11:28:44;;;;;;;37.25;20.20;;;4.30;99.90;;;;;;6063211;23;93510;-71
2022/12/03 11:31:38;;;;;;;41.72;21.00;;;4.30;99.90;;;;;;6088243;23;94347;-74
2022/12/03 11:34:17;;;;;;;40.03;22.77;;;4.40;99.90;;;;;;6088109;23;92429;-75
2022/12/03 11:37:20;;;;;;;39.35;19.65;;;4.50;99.90;;;;;;6087968;23;92534;-79
2022/12/03 11:39:49;;;;;;;43.97;22.25;;;4.60;99.90;;;;;;6002307;23;98062;-79
2022/12/03 11:42:25;;;;;;;32.88;16.80;;;4.60;99.90;;;;;;6072215;23;96282;-80
2022/12/03 11:45:02;;;;;;;37.80;19.33;;;4.70;99.90;;;;;;6063275;23;92495;-79
2022/12/03 11:47:40;;;;;;;37.70;20.23;;;4.70;99.90;;;;;;6063959;23;92962;-76
2022/12/03 11:50:22;;;;;;;38.97;22.00;;;4.70;99.90;;;;;;6064992;23;93168;-79
2022/12/03 11:53:00;;;;;;;36.22;20.63;;;4.80;99.90;;;;;;6063253;23;92689;-74
2022/12/03 11:55:36;;;;;;;37.08;20.60;;;4.80;99.90;;;;;;6064906;23;92334;-74
2022/12/03 11:58:13;;;;;;;39.60;21.45;;;4.90;99.90;;;;;;6065562;23;91627;-72
2022/12/03 12:00:51;;;;;;;37.13;20.95;;;5.00;99.90;;;;;;6064690;23;93159;-72
2022/12/03 12:03:30;;;;;;;34.25;18.25;;;5.20;99.90;;;;;;6087654;23;95719;-72
2022/12/03 12:06:11;;;;;;;39.90;23.90;;;5.20;99.90;;;;;;6061758;23;94923;-72
2022/12/03 12:08:53;;;;;;;32.70;18.08;;;5.20;99.90;;;;;;6064884;23;92388;-71
2022/12/03 12:11:20;;;;;;;35.17;18.65;;;5.20;99.90;;;;;;6063368;23;93258;-72
2022/12/03 12:13:55;;;;;;;36.70;21.27;;;5.20;99.90;;;;;;6064280;23;92852;-72
2022/12/03 12:16:38;;;;;;;35.05;19.88;;;5.30;99.90;;;;;;6063685;23;93002;-75
2022/12/03 12:19:29;;;;;;;34.28;18.85;;;5.20;99.90;;;;;;6064361;23;92423;-73
2022/12/03 12:22:17;;;;;;;26.90;15.23;;;5.20;99.90;;;;;;6065194;23;92974;-73
2022/12/03 12:24:50;;;;;;;31.50;17.42;;;5.20;99.90;;;;;;6088945;23;93033;-73
2022/12/03 12:27:20;;;;;;;38.63;24.08;;;5.30;99.90;;;;;;6065720;23;92616;-73
2022/12/03 12:29:56;;;;;;;32.80;19.02;;;5.40;99.90;;;;;;6088867;23;92497;-73
2022/12/03 12:32:32;;;;;;;35.45;20.48;;;5.50;99.90;;;;;;6062259;23;98163;-73
2022/12/03 12:35:20;;;;;;;38.05;19.85;;;5.50;99.90;;;;;;6064114;23;95604;-73
2022/12/03 12:37:52;;;;;;;27.05;14.90;;;5.60;99.90;;;;;;6065670;23;92445;-74
2022/12/03 12:40:29;;;;;;;35.97;18.13;;;5.50;99.90;;;;;;6066267;23;92756;-73
2022/12/03 12:42:57;;;;;;;27.85;17.10;;;5.50;99.90;;;;;;6065728;23;93249;-73
2022/12/03 12:45:32;;;;;;;23.35;14.38;;;5.40;99.90;;;;;;6063492;23;108947;-74
2022/12/03 12:48:33;;;;;;;31.58;16.55;;;5.30;99.90;;;;;;6064099;23;92494;-74
2022/12/03 12:51:12;;;;;;;27.60;15.82;;;5.40;99.90;;;;;;6065820;23;91628;-74
2022/12/03 12:53:41;;;;;;;34.05;19.60;;;5.30;99.90;;;;;;6088943;23;93028;-74
2022/12/03 12:56:28;;;;;;;34.65;20.42;;;5.30;99.90;;;;;;6065539;23;92835;-73
2022/12/03 12:58:59;;;;;;;26.55;16.92;;;5.30;99.90;;;;;;6062545;23;95114;-77
2022/12/03 13:01:31;;;;;;;34.63;20.50;;;5.20;99.90;;;;;;6064624;23;92656;-74
2022/12/03 13:03:58;;;;;;;35.00;18.55;;;5.20;99.90;;;;;;6063466;23;96072;-74
2022/12/03 13:06:28;;;;;;;35.28;18.83;;;5.10;99.90;;;;;;6065421;23;93008;-75
2022/12/03 13:08:57;;;;;;;32.22;18.67;;;5.10;99.90;;;;;;6063656;23;92388;-74
2022/12/03 13:11:24;;;;;;;35.63;21.30;;;5.00;99.90;;;;;;6088409;23;96880;-74
2022/12/03 13:13:51;;;;;;;31.08;16.48;;;5.00;99.90;;;;;;6065312;23;92454;-72
2022/12/03 13:16:29;;;;;;;32.28;18.38;;;4.90;99.90;;;;;;6064225;23;92979;-73